Antelope, KS

2:50 AM CST on February 10, 2016 (GMT -0600)
Marion | | Change Station
CLOSE
Current Station
Personal Weather Station
Location: Marion, KS
Elevation: 1371 ft
Nearby Weather Stations

Elev 1371 ft 38.35 °N, 97.01 °W | Updated 9 minutes ago

Mostly Cloudy
Mostly Cloudy
21.4 °F
Feels Like 21 °F
N
0.0
Wind Variable Wind from West

Today
High -- | Low -- °F
--% Chance of Precip.
Yesterday
High -- | Low -- °F
Precip. -- in
Pressure 30.22 in
Visibility 10.0 miles
Clouds Overcast 9000 ft
Windchill 21 °F
Dew Point 16 °F
Humidity 80%
Rainfall 0.00 in
Snow Depth Not available.
7:24 AM 5:59 PM
Waxing Crescent, 4% visible
METAR KEWK 100835Z AUTO 20008KT 10SM OVC090 M03/M11 A3022 RMK AO1
Pressure 30.22 in
Visibility 10.0 miles
Clouds Overcast 9000 ft
Windchill 21 °F
Dew Point 16 °F
Humidity 80%
Rainfall 0.00 in
Snow Depth Not available.
7:24 AM 5:59 PM
Waxing Crescent, 4% visible
METAR KEWK 100835Z AUTO 20008KT 10SM OVC090 M03/M11 A3022 RMK AO1

10-Day Weather Forecast

Almanac

Astronomy

Feb. 10, 2016 Rise Set
Actual Time
Civil Twilight
Nautical Twilight
Astronomical Twilight
Moon
Length of Visible Light
Length of Day
Tomorrow will be .
, % of the Moon is Illuminated

Today's Extremes

State Highs State Lows

Community

WunderPhotos

Upload Photos

1,891,826 photos uploaded!

WunderBlog® & News

Nearby

Air Quality

  Air Quality AQ Index Pollutant
Not available.

Snow Depth

Station Depth Elevation

Earthquake Activity

City Distance Mag. Time & Date
Minimum magnitude displayed is 2.5.

Coastal Water Temperatures

Place Temperature

Stations

Nearby Weather Stations

Station Location Temp. Windchill Dew Point Humidity Wind Precip. Elev Updated Type
                   

Watches & Warnings

There are currently no watches in effect.